sensor_id;sensor_type;location;lat;lon;timestamp;temperature;humidity
35244;DHT22;37916;52.160;21.066;2023-04-25T00:01:13;12.80;71.60
35244;DHT22;37916;52.160;21.066;2023-04-25T00:11:14;12.70;71.40
35244;DHT22;37916;52.160;21.066;2023-04-25T00:21:15;12.40;74.20
35244;DHT22;37916;52.160;21.066;2023-04-25T00:31:18;12.30;75.30
35244;DHT22;37916;52.160;21.066;2023-04-25T00:41:18;12.50;75.10
35244;DHT22;37916;52.160;21.066;2023-04-25T00:51:20;12.60;75.30
35244;DHT22;37916;52.160;21.066;2023-04-25T01:01:21;12.50;74.80
35244;DHT22;37916;52.160;21.066;2023-04-25T01:11:22;12.50;72.50
35244;DHT22;37916;52.160;21.066;2023-04-25T01:21:22;12.20;75.10
35244;DHT22;37916;52.160;21.066;2023-04-25T01:31:23;12.10;75.00
35244;DHT22;37916;52.160;21.066;2023-04-25T01:41:23;11.80;78.40
35244;DHT22;37916;52.160;21.066;2023-04-25T01:51:24;11.80;76.80
35244;DHT22;37916;52.160;21.066;2023-04-25T02:01:27;12.10;76.60
35244;DHT22;37916;52.160;21.066;2023-04-25T02:11:27;12.40;77.30
35244;DHT22;37916;52.160;21.066;2023-04-25T02:21:28;12.20;80.60
35244;DHT22;37916;52.160;21.066;2023-04-25T02:31:28;12.10;81.70
35244;DHT22;37916;52.160;21.066;2023-04-25T02:41:29;12.00;80.90
35244;DHT22;37916;52.160;21.066;2023-04-25T02:51:29;11.90;83.10
35244;DHT22;37916;52.160;21.066;2023-04-25T03:01:30;11.70;82.80
35244;DHT22;37916;52.160;21.066;2023-04-25T03:11:31;11.50;83.20
35244;DHT22;37916;52.160;21.066;2023-04-25T03:21:32;11.50;84.80
35244;DHT22;37916;52.160;21.066;2023-04-25T03:31:32;11.70;83.20
35244;DHT22;37916;52.160;21.066;2023-04-25T03:41:33;12.10;82.80
35244;DHT22;37916;52.160;21.066;2023-04-25T03:51:33;12.30;82.70
35244;DHT22;37916;52.160;21.066;2023-04-25T04:01:34;12.60;80.50
35244;DHT22;37916;52.160;21.066;2023-04-25T04:11:35;12.80;79.50
35244;DHT22;37916;52.160;21.066;2023-04-25T04:21:37;12.90;79.40
35244;DHT22;37916;52.160;21.066;2023-04-25T04:31:37;13.10;78.50
35244;DHT22;37916;52.160;21.066;2023-04-25T04:41:38;13.30;76.10
35244;DHT22;37916;52.160;21.066;2023-04-25T04:51:38;13.30;78.00
35244;DHT22;37916;52.160;21.066;2023-04-25T05:01:39;13.60;76.70
35244;DHT22;37916;52.160;21.066;2023-04-25T05:11:39;13.80;75.90
35244;DHT22;37916;52.160;21.066;2023-04-25T05:21:42;13.50;81.10
35244;DHT22;37916;52.160;21.066;2023-04-25T05:31:43;13.10;86.00
35244;DHT22;37916;52.160;21.066;2023-04-25T05:41:44;13.10;88.10
35244;DHT22;37916;52.160;21.066;2023-04-25T05:51:44;12.90;87.70
35244;DHT22;37916;52.160;21.066;2023-04-25T06:01:45;13.30;85.30
35244;DHT22;37916;52.160;21.066;2023-04-25T06:11:46;13.20;83.60
35244;DHT22;37916;52.160;21.066;2023-04-25T06:21:47;13.20;82.40
35244;DHT22;37916;52.160;21.066;2023-04-25T06:31:47;12.80;87.50
35244;DHT22;37916;52.160;21.066;2023-04-25T06:41:48;12.50;93.40
35244;DHT22;37916;52.160;21.066;2023-04-25T06:51:49;12.40;93.80
35244;DHT22;37916;52.160;21.066;2023-04-25T07:01:49;12.20;92.80
35244;DHT22;37916;52.160;21.066;2023-04-25T07:11:50;12.80;92.70
35244;DHT22;37916;52.160;21.066;2023-04-25T07:21:51;13.40;91.60
35244;DHT22;37916;52.160;21.066;2023-04-25T07:31:51;13.90;91.70
35244;DHT22;37916;52.160;21.066;2023-04-25T07:41:53;13.90;89.60
35244;DHT22;37916;52.160;21.066;2023-04-25T07:51:53;13.80;88.00
35244;DHT22;37916;52.160;21.066;2023-04-25T08:01:54;13.90;87.70
35244;DHT22;37916;52.160;21.066;2023-04-25T08:11:55;14.30;86.60
35244;DHT22;37916;52.160;21.066;2023-04-25T08:21:56;14.70;80.40
35244;DHT22;37916;52.160;21.066;2023-04-25T08:31:57;14.40;78.40
35244;DHT22;37916;52.160;21.066;2023-04-25T08:41:57;14.10;78.50
35244;DHT22;37916;52.160;21.066;2023-04-25T08:51:59;13.80;78.50
35244;DHT22;37916;52.160;21.066;2023-04-25T09:02:00;13.50;79.80
35244;DHT22;37916;52.160;21.066;2023-04-25T09:12:00;13.20;80.30
35244;DHT22;37916;52.160;21.066;2023-04-25T09:22:03;13.20;78.50
35244;DHT22;37916;52.160;21.066;2023-04-25T09:32:10;13.10;81.20
35244;DHT22;37916;52.160;21.066;2023-04-25T09:42:11;13.10;86.10
35244;DHT22;37916;52.160;21.066;2023-04-25T09:52:16;13.30;86.00
35244;DHT22;37916;52.160;21.066;2023-04-25T10:02:18;13.20;85.80
35244;DHT22;37916;52.160;21.066;2023-04-25T10:12:20;12.70;84.30
35244;DHT22;37916;52.160;21.066;2023-04-25T10:22:36;12.40;87.60
35244;DHT22;37916;52.160;21.066;2023-04-25T10:32:38;12.60;85.20
35244;DHT22;37916;52.160;21.066;2023-04-25T10:42:40;12.50;82.50
35244;DHT22;37916;52.160;21.066;2023-04-25T10:52:41;12.80;82.50
35244;DHT22;37916;52.160;21.066;2023-04-25T11:02:42;13.60;80.70
35244;DHT22;37916;52.160;21.066;2023-04-25T11:12:45;13.30;78.30
35244;DHT22;37916;52.160;21.066;2023-04-25T11:22:47;13.20;79.50
35244;DHT22;37916;52.160;21.066;2023-04-25T11:32:47;13.00;77.10
35244;DHT22;37916;52.160;21.066;2023-04-25T11:42:48;13.10;76.90
35244;DHT22;37916;52.160;21.066;2023-04-25T11:52:48;13.40;75.90
35244;DHT22;37916;52.160;21.066;2023-04-25T12:02:52;13.30;76.40
35244;DHT22;37916;52.160;21.066;2023-04-25T12:12:53;13.50;73.90
35244;DHT22;37916;52.160;21.066;2023-04-25T12:22:54;13.50;74.50
35244;DHT22;37916;52.160;21.066;2023-04-25T12:32:55;13.40;74.00
35244;DHT22;37916;52.160;21.066;2023-04-25T12:42:56;13.60;71.30
35244;DHT22;37916;52.160;21.066;2023-04-25T12:52:57;13.50;71.00
35244;DHT22;37916;52.160;21.066;2023-04-25T13:02:58;13.90;68.80
35244;DHT22;37916;52.160;21.066;2023-04-25T13:13:00;14.30;68.90
35244;DHT22;37916;52.160;21.066;2023-04-25T13:23:01;14.10;66.80
35244;DHT22;37916;52.160;21.066;2023-04-25T13:33:02;14.20;68.20
35244;DHT22;37916;52.160;21.066;2023-04-25T13:43:03;13.80;68.60
35244;DHT22;37916;52.160;21.066;2023-04-25T13:53:03;13.70;65.50
35244;DHT22;37916;52.160;21.066;2023-04-25T14:03:04;13.70;67.00
35244;DHT22;37916;52.160;21.066;2023-04-25T14:13:07;13.80;72.50
35244;DHT22;37916;52.160;21.066;2023-04-25T14:23:07;13.50;77.40
35244;DHT22;37916;52.160;21.066;2023-04-25T14:33:08;13.70;77.80
35244;DHT22;37916;52.160;21.066;2023-04-25T14:43:09;13.10;83.40
35244;DHT22;37916;52.160;21.066;2023-04-25T14:53:09;13.20;84.90
35244;DHT22;37916;52.160;21.066;2023-04-25T15:03:10;12.80;87.90
35244;DHT22;37916;52.160;21.066;2023-04-25T15:13:13;12.70;91.00
35244;DHT22;37916;52.160;21.066;2023-04-25T15:23:13;12.60;90.80
35244;DHT22;37916;52.160;21.066;2023-04-25T15:33:14;12.30;90.50
35244;DHT22;37916;52.160;21.066;2023-04-25T15:43:15;12.40;90.90
35244;DHT22;37916;52.160;21.066;2023-04-25T15:53:16;12.20;87.90
35244;DHT22;37916;52.160;21.066;2023-04-25T16:03:17;12.00;88.20
35244;DHT22;37916;52.160;21.066;2023-04-25T16:13:20;11.80;88.10
35244;DHT22;37916;52.160;21.066;2023-04-25T16:23:29;11.70;84.30
35244;DHT22;37916;52.160;21.066;2023-04-25T16:33:36;11.60;84.30
35244;DHT22;37916;52.160;21.066;2023-04-25T16:43:36;11.20;87.20
35244;DHT22;37916;52.160;21.066;2023-04-25T16:53:39;10.80;88.20
35244;DHT22;37916;52.160;21.066;2023-04-25T17:03:42;10.50;91.20
35244;DHT22;37916;52.160;21.066;2023-04-25T17:24:24;10.10;91.70
35244;DHT22;37916;52.160;21.066;2023-04-25T17:34:26;9.90;92.60
35244;DHT22;37916;52.160;21.066;2023-04-25T17:44:26;9.80;92.60
35244;DHT22;37916;52.160;21.066;2023-04-25T17:54:27;9.70;92.70
35244;DHT22;37916;52.160;21.066;2023-04-25T18:04:29;9.60;93.50
35244;DHT22;37916;52.160;21.066;2023-04-25T18:14:29;9.40;94.10
35244;DHT22;37916;52.160;21.066;2023-04-25T18:24:32;9.40;94.40
35244;DHT22;37916;52.160;21.066;2023-04-25T18:34:32;9.30;94.60
35244;DHT22;37916;52.160;21.066;2023-04-25T18:44:34;9.30;94.80
35244;DHT22;37916;52.160;21.066;2023-04-25T18:54:41;9.20;94.80
35244;DHT22;37916;52.160;21.066;2023-04-25T19:04:45;9.20;95.10
35244;DHT22;37916;52.160;21.066;2023-04-25T19:14:46;9.10;95.30
35244;DHT22;37916;52.160;21.066;2023-04-25T19:46:02;9.00;93.10
35244;DHT22;37916;52.160;21.066;2023-04-25T19:56:03;9.00;92.10
35244;DHT22;37916;52.160;21.066;2023-04-25T20:06:04;8.90;92.10
35244;DHT22;37916;52.160;21.066;2023-04-25T20:16:04;9.00;92.20
35244;DHT22;37916;52.160;21.066;2023-04-25T20:26:05;9.10;92.20
35244;DHT22;37916;52.160;21.066;2023-04-25T20:36:05;9.10;92.30
35244;DHT22;37916;52.160;21.066;2023-04-25T20:46:06;9.10;92.30
35244;DHT22;37916;52.160;21.066;2023-04-25T20:56:07;8.90;92.30
35244;DHT22;37916;52.160;21.066;2023-04-25T21:06:10;9.00;92.30
35244;DHT22;37916;52.160;21.066;2023-04-25T21:16:10;8.90;92.40
35244;DHT22;37916;52.160;21.066;2023-04-25T21:26:11;8.90;92.40
35244;DHT22;37916;52.160;21.066;2023-04-25T21:36:11;8.90;92.40
35244;DHT22;37916;52.160;21.066;2023-04-25T21:46:12;8.80;92.40
35244;DHT22;37916;52.160;21.066;2023-04-25T21:56:12;8.90;92.60
35244;DHT22;37916;52.160;21.066;2023-04-25T22:06:13;8.90;95.10
35244;DHT22;37916;52.160;21.066;2023-04-25T22:16:13;9.00;95.40
35244;DHT22;37916;52.160;21.066;2023-04-25T22:26:14;9.00;95.40
35244;DHT22;37916;52.160;21.066;2023-04-25T22:36:15;8.90;95.40
35244;DHT22;37916;52.160;21.066;2023-04-25T22:46:17;8.40;95.10
35244;DHT22;37916;52.160;21.066;2023-04-25T22:56:18;8.30;95.40
35244;DHT22;37916;52.160;21.066;2023-04-25T23:06:18;8.10;95.30
35244;DHT22;37916;52.160;21.066;2023-04-25T23:16:19;8.00;95.40
35244;DHT22;37916;52.160;21.066;2023-04-25T23:26:19;8.00;95.60
35244;DHT22;37916;52.160;21.066;2023-04-25T23:36:23;8.00;95.70
35244;DHT22;37916;52.160;21.066;2023-04-25T23:46:23;7.70;95.60
35244;DHT22;37916;52.160;21.066;2023-04-25T23:56:25;7.80;95.70
